sensor_id;sensor_type;location;lat;lon;timestamp;temperature;humidity
23359;DHT22;11851;50.796;4.372;2022-08-18T00:02:27;21.80;99.90
23359;DHT22;11851;50.796;4.372;2022-08-18T00:04:54;21.80;99.90
23359;DHT22;11851;50.796;4.372;2022-08-18T00:07:26;21.70;99.90
23359;DHT22;11851;50.796;4.372;2022-08-18T00:09:53;21.70;99.90
23359;DHT22;11851;50.796;4.372;2022-08-18T00:12:25;21.70;99.90
23359;DHT22;11851;50.796;4.372;2022-08-18T00:14:52;21.70;99.90
23359;DHT22;11851;50.796;4.372;2022-08-18T00:17:18;21.70;99.90
23359;DHT22;11851;50.796;4.372;2022-08-18T00:19:45;21.70;99.90
23359;DHT22;11851;50.796;4.372;2022-08-18T00:22:13;21.60;99.90
23359;DHT22;11851;50.796;4.372;2022-08-18T00:24:39;21.70;99.90
23359;DHT22;11851;50.796;4.372;2022-08-18T00:27:05;21.70;99.90
23359;DHT22;11851;50.796;4.372;2022-08-18T00:29:31;21.70;99.90
23359;DHT22;11851;50.796;4.372;2022-08-18T00:31:57;21.70;99.90
23359;DHT22;11851;50.796;4.372;2022-08-18T00:34:23;21.70;99.90
23359;DHT22;11851;50.796;4.372;2022-08-18T00:36:49;21.60;99.90
23359;DHT22;11851;50.796;4.372;2022-08-18T00:39:15;21.60;99.90
23359;DHT22;11851;50.796;4.372;2022-08-18T00:41:41;21.60;99.90
23359;DHT22;11851;50.796;4.372;2022-08-18T00:44:07;21.60;99.90
23359;DHT22;11851;50.796;4.372;2022-08-18T00:46:35;21.60;99.90
23359;DHT22;11851;50.796;4.372;2022-08-18T00:49:03;21.60;99.90
23359;DHT22;11851;50.796;4.372;2022-08-18T00:51:41;21.60;99.90
23359;DHT22;11851;50.796;4.372;2022-08-18T00:56:38;21.60;99.90
23359;DHT22;11851;50.796;4.372;2022-08-18T00:59:34;21.60;99.90
23359;DHT22;11851;50.796;4.372;2022-08-18T01:01:57;21.60;99.90
23359;DHT22;11851;50.796;4.372;2022-08-18T01:04:48;21.60;99.90
23359;DHT22;11851;50.796;4.372;2022-08-18T01:07:20;21.50;99.90
23359;DHT22;11851;50.796;4.372;2022-08-18T01:09:47;21.60;99.90
23359;DHT22;11851;50.796;4.372;2022-08-18T01:12:13;21.50;99.90
23359;DHT22;11851;50.796;4.372;2022-08-18T01:14:39;21.50;99.90
23359;DHT22;11851;50.796;4.372;2022-08-18T01:17:05;21.50;99.90
23359;DHT22;11851;50.796;4.372;2022-08-18T01:19:49;21.40;99.90
23359;DHT22;11851;50.796;4.372;2022-08-18T01:25:15;21.40;99.90
23359;DHT22;11851;50.796;4.372;2022-08-18T01:28:00;21.40;99.90
23359;DHT22;11851;50.796;4.372;2022-08-18T01:30:28;21.40;99.90
23359;DHT22;11851;50.796;4.372;2022-08-18T01:32:54;21.40;99.90
23359;DHT22;11851;50.796;4.372;2022-08-18T01:35:22;21.50;99.90
23359;DHT22;11851;50.796;4.372;2022-08-18T01:37:50;21.50;99.90
23359;DHT22;11851;50.796;4.372;2022-08-18T01:40:18;21.60;99.90
23359;DHT22;11851;50.796;4.372;2022-08-18T01:42:44;21.60;99.90
23359;DHT22;11851;50.796;4.372;2022-08-18T01:45:12;21.70;99.90
23359;DHT22;11851;50.796;4.372;2022-08-18T01:47:39;21.70;99.90
23359;DHT22;11851;50.796;4.372;2022-08-18T01:50:06;21.80;99.90
23359;DHT22;11851;50.796;4.372;2022-08-18T01:52:32;21.80;99.90
23359;DHT22;11851;50.796;4.372;2022-08-18T01:55:00;21.80;99.90
23359;DHT22;11851;50.796;4.372;2022-08-18T01:57:27;21.80;99.90
23359;DHT22;11851;50.796;4.372;2022-08-18T01:59:52;21.80;99.90
23359;DHT22;11851;50.796;4.372;2022-08-18T02:02:24;21.80;99.90
23359;DHT22;11851;50.796;4.372;2022-08-18T02:04:54;21.80;99.90
23359;DHT22;11851;50.796;4.372;2022-08-18T02:07:21;21.80;99.90
23359;DHT22;11851;50.796;4.372;2022-08-18T02:09:47;21.80;99.90
23359;DHT22;11851;50.796;4.372;2022-08-18T02:12:12;21.70;99.90
23359;DHT22;11851;50.796;4.372;2022-08-18T02:14:38;21.70;99.90
23359;DHT22;11851;50.796;4.372;2022-08-18T02:17:06;21.70;99.90
23359;DHT22;11851;50.796;4.372;2022-08-18T02:19:34;21.70;99.90
23359;DHT22;11851;50.796;4.372;2022-08-18T02:22:02;21.70;99.90
23359;DHT22;11851;50.796;4.372;2022-08-18T02:24:28;21.70;99.90
23359;DHT22;11851;50.796;4.372;2022-08-18T02:26:54;21.70;99.90
23359;DHT22;11851;50.796;4.372;2022-08-18T02:29:19;21.70;99.90
23359;DHT22;11851;50.796;4.372;2022-08-18T02:31:45;21.70;99.90
23359;DHT22;11851;50.796;4.372;2022-08-18T02:34:10;21.60;99.90
23359;DHT22;11851;50.796;4.372;2022-08-18T02:36:36;21.60;99.90
23359;DHT22;11851;50.796;4.372;2022-08-18T02:39:03;21.70;99.90
23359;DHT22;11851;50.796;4.372;2022-08-18T02:41:29;21.70;99.90
23359;DHT22;11851;50.796;4.372;2022-08-18T02:43:56;21.60;99.90
23359;DHT22;11851;50.796;4.372;2022-08-18T02:46:21;21.60;99.90
23359;DHT22;11851;50.796;4.372;2022-08-18T02:48:47;21.60;99.90
23359;DHT22;11851;50.796;4.372;2022-08-18T02:51:16;21.60;99.90
23359;DHT22;11851;50.796;4.372;2022-08-18T02:53:45;21.60;99.90
23359;DHT22;11851;50.796;4.372;2022-08-18T02:56:31;21.60;99.90
23359;DHT22;11851;50.796;4.372;2022-08-18T02:58:58;21.60;99.90
23359;DHT22;11851;50.796;4.372;2022-08-18T03:01:31;21.60;99.90
23359;DHT22;11851;50.796;4.372;2022-08-18T03:03:59;21.50;99.90
23359;DHT22;11851;50.796;4.372;2022-08-18T03:06:26;21.50;99.90
23359;DHT22;11851;50.796;4.372;2022-08-18T03:08:53;21.50;99.90
23359;DHT22;11851;50.796;4.372;2022-08-18T03:11:21;21.50;99.90
23359;DHT22;11851;50.796;4.372;2022-08-18T03:13:48;21.50;99.90
23359;DHT22;11851;50.796;4.372;2022-08-18T03:16:14;21.50;99.90
23359;DHT22;11851;50.796;4.372;2022-08-18T03:18:41;21.50;99.90
23359;DHT22;11851;50.796;4.372;2022-08-18T03:21:08;21.50;99.90
23359;DHT22;11851;50.796;4.372;2022-08-18T03:23:35;21.50;99.90
23359;DHT22;11851;50.796;4.372;2022-08-18T03:26:01;21.50;99.90
23359;DHT22;11851;50.796;4.372;2022-08-18T03:28:27;21.50;99.90
23359;DHT22;11851;50.796;4.372;2022-08-18T03:30:53;21.50;99.90
23359;DHT22;11851;50.796;4.372;2022-08-18T03:33:20;21.50;99.90
23359;DHT22;11851;50.796;4.372;2022-08-18T03:35:45;21.50;99.90
23359;DHT22;11851;50.796;4.372;2022-08-18T03:38:11;21.50;99.90
23359;DHT22;11851;50.796;4.372;2022-08-18T03:40:37;21.50;99.90
23359;DHT22;11851;50.796;4.372;2022-08-18T03:43:04;21.50;99.90
23359;DHT22;11851;50.796;4.372;2022-08-18T03:45:33;21.50;99.90
23359;DHT22;11851;50.796;4.372;2022-08-18T03:48:00;21.50;99.90
23359;DHT22;11851;50.796;4.372;2022-08-18T03:50:28;21.50;99.90
23359;DHT22;11851;50.796;4.372;2022-08-18T03:52:54;21.60;99.90
23359;DHT22;11851;50.796;4.372;2022-08-18T03:55:25;21.60;99.90
23359;DHT22;11851;50.796;4.372;2022-08-18T03:57:52;21.60;99.90
23359;DHT22;11851;50.796;4.372;2022-08-18T04:00:20;21.60;99.90
23359;DHT22;11851;50.796;4.372;2022-08-18T04:02:47;21.60;99.90
23359;DHT22;11851;50.796;4.372;2022-08-18T04:05:13;21.70;99.90
23359;DHT22;11851;50.796;4.372;2022-08-18T04:07:39;21.70;99.90
23359;DHT22;11851;50.796;4.372;2022-08-18T04:10:05;21.80;99.90
23359;DHT22;11851;50.796;4.372;2022-08-18T04:12:30;21.80;99.90
23359;DHT22;11851;50.796;4.372;2022-08-18T04:14:57;21.80;99.90
23359;DHT22;11851;50.796;4.372;2022-08-18T04:17:22;21.80;99.90
23359;DHT22;11851;50.796;4.372;2022-08-18T04:19:52;21.80;99.90
23359;DHT22;11851;50.796;4.372;2022-08-18T04:22:18;21.80;99.90
23359;DHT22;11851;50.796;4.372;2022-08-18T04:24:44;21.80;99.90
23359;DHT22;11851;50.796;4.372;2022-08-18T04:27:10;21.80;99.90
23359;DHT22;11851;50.796;4.372;2022-08-18T04:29:35;21.80;99.90
23359;DHT22;11851;50.796;4.372;2022-08-18T04:32:02;21.80;99.90
23359;DHT22;11851;50.796;4.372;2022-08-18T04:34:31;21.80;99.90
23359;DHT22;11851;50.796;4.372;2022-08-18T04:36:57;21.90;99.90
23359;DHT22;11851;50.796;4.372;2022-08-18T04:39:23;21.90;99.90
23359;DHT22;11851;50.796;4.372;2022-08-18T04:41:50;21.90;99.90
23359;DHT22;11851;50.796;4.372;2022-08-18T04:44:17;21.80;99.90
23359;DHT22;11851;50.796;4.372;2022-08-18T04:46:52;21.80;99.90
23359;DHT22;11851;50.796;4.372;2022-08-18T04:49:21;21.80;99.90
23359;DHT22;11851;50.796;4.372;2022-08-18T04:51:49;21.80;99.90
23359;DHT22;11851;50.796;4.372;2022-08-18T04:54:36;21.80;99.90
23359;DHT22;11851;50.796;4.372;2022-08-18T04:57:16;21.80;99.90
23359;DHT22;11851;50.796;4.372;2022-08-18T04:59:45;21.80;99.90
23359;DHT22;11851;50.796;4.372;2022-08-18T05:02:12;21.80;99.90
23359;DHT22;11851;50.796;4.372;2022-08-18T05:04:40;21.90;99.90
23359;DHT22;11851;50.796;4.372;2022-08-18T05:07:10;21.80;99.90
23359;DHT22;11851;50.796;4.372;2022-08-18T05:09:37;21.90;99.90
23359;DHT22;11851;50.796;4.372;2022-08-18T05:12:04;21.80;99.90
23359;DHT22;11851;50.796;4.372;2022-08-18T05:14:31;21.70;99.90
23359;DHT22;11851;50.796;4.372;2022-08-18T05:17:00;21.70;99.90
23359;DHT22;11851;50.796;4.372;2022-08-18T05:19:27;21.70;99.90
23359;DHT22;11851;50.796;4.372;2022-08-18T05:21:53;21.70;99.90
23359;DHT22;11851;50.796;4.372;2022-08-18T05:24:20;21.60;99.90
23359;DHT22;11851;50.796;4.372;2022-08-18T05:26:46;21.70;99.90
23359;DHT22;11851;50.796;4.372;2022-08-18T05:29:13;21.70;99.90
23359;DHT22;11851;50.796;4.372;2022-08-18T05:31:41;21.70;99.90
23359;DHT22;11851;50.796;4.372;2022-08-18T05:34:06;21.70;99.90
23359;DHT22;11851;50.796;4.372;2022-08-18T05:39:26;21.60;99.90
23359;DHT22;11851;50.796;4.372;2022-08-18T05:42:07;21.60;99.90
23359;DHT22;11851;50.796;4.372;2022-08-18T05:44:40;21.40;99.90
23359;DHT22;11851;50.796;4.372;2022-08-18T05:49:43;21.40;99.90
23359;DHT22;11851;50.796;4.372;2022-08-18T05:54:50;21.50;99.90
23359;DHT22;11851;50.796;4.372;2022-08-18T05:58:02;21.50;99.90
23359;DHT22;11851;50.796;4.372;2022-08-18T06:00:30;21.50;99.90
23359;DHT22;11851;50.796;4.372;2022-08-18T06:03:00;21.50;99.90
23359;DHT22;11851;50.796;4.372;2022-08-18T06:05:34;21.50;99.90
23359;DHT22;11851;50.796;4.372;2022-08-18T06:08:12;21.50;99.90
23359;DHT22;11851;50.796;4.372;2022-08-18T06:10:47;21.50;99.90
23359;DHT22;11851;50.796;4.372;2022-08-18T06:13:13;21.50;99.90
23359;DHT22;11851;50.796;4.372;2022-08-18T06:21:21;21.50;99.90
23359;DHT22;11851;50.796;4.372;2022-08-18T06:24:14;21.50;99.90
23359;DHT22;11851;50.796;4.372;2022-08-18T06:27:10;21.50;99.90
23359;DHT22;11851;50.796;4.372;2022-08-18T06:30:41;21.60;99.90
23359;DHT22;11851;50.796;4.372;2022-08-18T06:33:05;21.70;99.90
23359;DHT22;11851;50.796;4.372;2022-08-18T06:35:47;21.80;99.90
23359;DHT22;11851;50.796;4.372;2022-08-18T06:41:21;21.80;99.90
23359;DHT22;11851;50.796;4.372;2022-08-18T06:43:54;21.80;99.90
23359;DHT22;11851;50.796;4.372;2022-08-18T06:49:20;22.00;99.90
23359;DHT22;11851;50.796;4.372;2022-08-18T06:51:48;22.10;99.90
23359;DHT22;11851;50.796;4.372;2022-08-18T06:56:48;22.30;99.90
23359;DHT22;11851;50.796;4.372;2022-08-18T06:59:30;22.40;99.90
23359;DHT22;11851;50.796;4.372;2022-08-18T07:02:19;22.40;99.90
23359;DHT22;11851;50.796;4.372;2022-08-18T07:05:05;22.50;99.90
23359;DHT22;11851;50.796;4.372;2022-08-18T07:07:40;22.50;99.90
23359;DHT22;11851;50.796;4.372;2022-08-18T07:12:41;22.70;99.90
23359;DHT22;11851;50.796;4.372;2022-08-18T07:15:11;22.70;99.90
23359;DHT22;11851;50.796;4.372;2022-08-18T07:17:37;22.70;99.90
23359;DHT22;11851;50.796;4.372;2022-08-18T07:20:17;22.80;99.90
23359;DHT22;11851;50.796;4.372;2022-08-18T07:22:57;22.70;99.90
23359;DHT22;11851;50.796;4.372;2022-08-18T07:25:41;22.80;99.90
23359;DHT22;11851;50.796;4.372;2022-08-18T07:28:32;22.80;99.90
23359;DHT22;11851;50.796;4.372;2022-08-18T07:33:58;22.90;99.90
23359;DHT22;11851;50.796;4.372;2022-08-18T07:36:29;23.00;99.90
23359;DHT22;11851;50.796;4.372;2022-08-18T07:41:51;23.20;99.90
23359;DHT22;11851;50.796;4.372;2022-08-18T07:44:26;23.30;99.90
23359;DHT22;11851;50.796;4.372;2022-08-18T07:49:25;23.60;99.90
23359;DHT22;11851;50.796;4.372;2022-08-18T07:51:58;23.70;99.90
23359;DHT22;11851;50.796;4.372;2022-08-18T07:54:48;23.80;99.90
23359;DHT22;11851;50.796;4.372;2022-08-18T07:57:26;23.90;99.90
23359;DHT22;11851;50.796;4.372;2022-08-18T08:02:48;24.00;99.90
23359;DHT22;11851;50.796;4.372;2022-08-18T08:05:38;24.20;99.90
23359;DHT22;11851;50.796;4.372;2022-08-18T08:21:14;24.00;99.90
23359;DHT22;11851;50.796;4.372;2022-08-18T08:32:05;23.90;99.90
23359;DHT22;11851;50.796;4.372;2022-08-18T08:34:54;24.00;99.90
23359;DHT22;11851;50.796;4.372;2022-08-18T08:37:47;24.00;99.90
23359;DHT22;11851;50.796;4.372;2022-08-18T08:43:03;24.30;99.90
23359;DHT22;11851;50.796;4.372;2022-08-18T08:45:35;24.40;99.90
23359;DHT22;11851;50.796;4.372;2022-08-18T08:48:21;24.40;99.90
23359;DHT22;11851;50.796;4.372;2022-08-18T08:50:57;24.40;99.90
23359;DHT22;11851;50.796;4.372;2022-08-18T08:55:58;24.60;99.90
23359;DHT22;11851;50.796;4.372;2022-08-18T08:58:29;24.80;99.90
23359;DHT22;11851;50.796;4.372;2022-08-18T09:00:56;24.90;99.90
23359;DHT22;11851;50.796;4.372;2022-08-18T09:06:25;25.00;99.90
23359;DHT22;11851;50.796;4.372;2022-08-18T09:09:06;25.10;99.90
23359;DHT22;11851;50.796;4.372;2022-08-18T09:14:55;25.20;99.90
23359;DHT22;11851;50.796;4.372;2022-08-18T09:23:17;25.50;99.90
23359;DHT22;11851;50.796;4.372;2022-08-18T09:28:18;25.70;99.90
23359;DHT22;11851;50.796;4.372;2022-08-18T09:38:54;26.10;99.90
23359;DHT22;11851;50.796;4.372;2022-08-18T09:42:12;26.20;99.90
23359;DHT22;11851;50.796;4.372;2022-08-18T09:50:35;26.50;99.50
23359;DHT22;11851;50.796;4.372;2022-08-18T10:06:39;27.00;98.50
23359;DHT22;11851;50.796;4.372;2022-08-18T10:09:19;27.10;98.60
23359;DHT22;11851;50.796;4.372;2022-08-18T10:12:03;27.20;98.50
23359;DHT22;11851;50.796;4.372;2022-08-18T10:20:24;27.40;97.30
23359;DHT22;11851;50.796;4.372;2022-08-18T10:22:51;27.60;97.10
23359;DHT22;11851;50.796;4.372;2022-08-18T10:25:40;27.60;96.60
23359;DHT22;11851;50.796;4.372;2022-08-18T10:28:10;27.70;96.30
23359;DHT22;11851;50.796;4.372;2022-08-18T10:33:11;27.70;95.60
23359;DHT22;11851;50.796;4.372;2022-08-18T10:38:15;27.60;95.00
23359;DHT22;11851;50.796;4.372;2022-08-18T10:40:57;27.60;95.20
23359;DHT22;11851;50.796;4.372;2022-08-18T10:43:45;27.30;95.20
23359;DHT22;11851;50.796;4.372;2022-08-18T10:46:23;27.30;95.80
23359;DHT22;11851;50.796;4.372;2022-08-18T10:52:02;27.30;95.60
23359;DHT22;11851;50.796;4.372;2022-08-18T10:57:10;27.40;95.70
23359;DHT22;11851;50.796;4.372;2022-08-18T10:59:50;27.50;95.10
23359;DHT22;11851;50.796;4.372;2022-08-18T11:02:35;27.50;94.70
23359;DHT22;11851;50.796;4.372;2022-08-18T11:05:08;27.50;94.50
23359;DHT22;11851;50.796;4.372;2022-08-18T11:07:35;27.60;94.30
23359;DHT22;11851;50.796;4.372;2022-08-18T11:10:16;27.60;93.90
23359;DHT22;11851;50.796;4.372;2022-08-18T11:15:52;27.60;93.80
23359;DHT22;11851;50.796;4.372;2022-08-18T11:26:32;27.90;93.50
23359;DHT22;11851;50.796;4.372;2022-08-18T11:29:00;28.00;93.50
23359;DHT22;11851;50.796;4.372;2022-08-18T11:31:26;28.10;93.30
23359;DHT22;11851;50.796;4.372;2022-08-18T11:33:52;28.20;92.80
23359;DHT22;11851;50.796;4.372;2022-08-18T11:36:29;28.20;92.50
23359;DHT22;11851;50.796;4.372;2022-08-18T11:38:55;28.30;92.10
23359;DHT22;11851;50.796;4.372;2022-08-18T11:41:26;28.30;92.10
23359;DHT22;11851;50.796;4.372;2022-08-18T11:43:56;28.30;91.60
23359;DHT22;11851;50.796;4.372;2022-08-18T11:46:29;28.30;91.60
23359;DHT22;11851;50.796;4.372;2022-08-18T11:48:56;28.30;91.60
23359;DHT22;11851;50.796;4.372;2022-08-18T11:51:28;28.30;91.40
23359;DHT22;11851;50.796;4.372;2022-08-18T11:56:38;28.40;90.80
23359;DHT22;11851;50.796;4.372;2022-08-18T11:59:28;28.50;90.70
23359;DHT22;11851;50.796;4.372;2022-08-18T12:01:56;28.50;90.80
23359;DHT22;11851;50.796;4.372;2022-08-18T12:04:36;28.50;90.70
23359;DHT22;11851;50.796;4.372;2022-08-18T12:07:07;28.40;90.20
23359;DHT22;11851;50.796;4.372;2022-08-18T12:09:42;28.30;89.60
23359;DHT22;11851;50.796;4.372;2022-08-18T12:12:24;28.30;89.90
23359;DHT22;11851;50.796;4.372;2022-08-18T12:17:21;28.10;90.40
23359;DHT22;11851;50.796;4.372;2022-08-18T12:19:47;28.10;90.80
23359;DHT22;11851;50.796;4.372;2022-08-18T12:22:22;28.10;91.10
23359;DHT22;11851;50.796;4.372;2022-08-18T12:24:49;28.30;91.70
23359;DHT22;11851;50.796;4.372;2022-08-18T12:27:17;28.40;91.40
23359;DHT22;11851;50.796;4.372;2022-08-18T12:29:43;28.60;90.80
23359;DHT22;11851;50.796;4.372;2022-08-18T12:32:10;28.70;90.60
23359;DHT22;11851;50.796;4.372;2022-08-18T12:34:36;28.90;90.30
23359;DHT22;11851;50.796;4.372;2022-08-18T12:37:02;29.00;88.90
23359;DHT22;11851;50.796;4.372;2022-08-18T12:39:29;29.00;88.70
23359;DHT22;11851;50.796;4.372;2022-08-18T12:41:55;29.10;86.60
23359;DHT22;11851;50.796;4.372;2022-08-18T12:44:21;29.10;86.50
23359;DHT22;11851;50.796;4.372;2022-08-18T12:46:47;29.10;86.00
23359;DHT22;11851;50.796;4.372;2022-08-18T12:49:16;29.20;85.60
23359;DHT22;11851;50.796;4.372;2022-08-18T12:51:43;29.30;85.60
23359;DHT22;11851;50.796;4.372;2022-08-18T12:54:08;29.30;84.80
23359;DHT22;11851;50.796;4.372;2022-08-18T12:56:34;29.20;84.00
23359;DHT22;11851;50.796;4.372;2022-08-18T12:59:03;29.20;84.00
23359;DHT22;11851;50.796;4.372;2022-08-18T13:01:30;29.20;83.60
23359;DHT22;11851;50.796;4.372;2022-08-18T13:03:56;29.30;84.20
23359;DHT22;11851;50.796;4.372;2022-08-18T13:06:24;29.30;83.40
23359;DHT22;11851;50.796;4.372;2022-08-18T13:08:51;29.30;83.30
23359;DHT22;11851;50.796;4.372;2022-08-18T13:11:18;29.50;84.20
23359;DHT22;11851;50.796;4.372;2022-08-18T13:13:44;29.60;83.80
23359;DHT22;11851;50.796;4.372;2022-08-18T13:16:11;29.70;82.70
23359;DHT22;11851;50.796;4.372;2022-08-18T13:18:37;29.80;82.10
23359;DHT22;11851;50.796;4.372;2022-08-18T13:21:07;29.90;81.00
23359;DHT22;11851;50.796;4.372;2022-08-18T13:23:33;30.10;80.20
23359;DHT22;11851;50.796;4.372;2022-08-18T13:26:00;30.10;80.00
23359;DHT22;11851;50.796;4.372;2022-08-18T13:28:26;30.10;80.00
23359;DHT22;11851;50.796;4.372;2022-08-18T13:30:52;30.10;79.60
23359;DHT22;11851;50.796;4.372;2022-08-18T13:33:19;30.20;80.60
23359;DHT22;11851;50.796;4.372;2022-08-18T13:35:46;30.40;79.50
23359;DHT22;11851;50.796;4.372;2022-08-18T13:38:13;30.50;78.50
23359;DHT22;11851;50.796;4.372;2022-08-18T13:40:39;30.80;78.70
23359;DHT22;11851;50.796;4.372;2022-08-18T13:43:05;31.10;78.80
23359;DHT22;11851;50.796;4.372;2022-08-18T13:45:33;31.40;77.40
23359;DHT22;11851;50.796;4.372;2022-08-18T13:47:58;31.70;76.80
23359;DHT22;11851;50.796;4.372;2022-08-18T13:50:24;32.00;74.70
23359;DHT22;11851;50.796;4.372;2022-08-18T13:52:50;32.30;73.60
23359;DHT22;11851;50.796;4.372;2022-08-18T13:55:17;32.50;72.50
23359;DHT22;11851;50.796;4.372;2022-08-18T13:57:44;32.60;71.00
23359;DHT22;11851;50.796;4.372;2022-08-18T14:00:16;32.60;71.90
23359;DHT22;11851;50.796;4.372;2022-08-18T14:02:45;32.70;71.30
23359;DHT22;11851;50.796;4.372;2022-08-18T14:05:13;32.60;70.60
23359;DHT22;11851;50.796;4.372;2022-08-18T14:07:40;32.60;70.40
23359;DHT22;11851;50.796;4.372;2022-08-18T14:10:07;32.70;69.60
23359;DHT22;11851;50.796;4.372;2022-08-18T14:12:35;32.50;68.70
23359;DHT22;11851;50.796;4.372;2022-08-18T14:15:04;32.60;69.00
23359;DHT22;11851;50.796;4.372;2022-08-18T14:17:31;32.50;68.80
23359;DHT22;11851;50.796;4.372;2022-08-18T14:19:57;32.20;69.20
23359;DHT22;11851;50.796;4.372;2022-08-18T14:22:42;32.30;69.90
23359;DHT22;11851;50.796;4.372;2022-08-18T14:25:26;32.60;68.30
23359;DHT22;11851;50.796;4.372;2022-08-18T14:28:10;33.30;66.90
23359;DHT22;11851;50.796;4.372;2022-08-18T14:30:37;34.30;65.60
23359;DHT22;11851;50.796;4.372;2022-08-18T14:33:07;35.30;63.40
23359;DHT22;11851;50.796;4.372;2022-08-18T14:35:35;36.10;62.40
23359;DHT22;11851;50.796;4.372;2022-08-18T14:38:01;37.10;60.10
23359;DHT22;11851;50.796;4.372;2022-08-18T14:40:28;38.00;57.80
23359;DHT22;11851;50.796;4.372;2022-08-18T14:42:55;38.60;57.20
23359;DHT22;11851;50.796;4.372;2022-08-18T14:45:23;39.30;55.00
23359;DHT22;11851;50.796;4.372;2022-08-18T14:47:50;39.90;53.70
23359;DHT22;11851;50.796;4.372;2022-08-18T14:50:19;40.30;52.40
23359;DHT22;11851;50.796;4.372;2022-08-18T14:52:45;39.70;52.30
23359;DHT22;11851;50.796;4.372;2022-08-18T14:55:13;38.80;53.30
23359;DHT22;11851;50.796;4.372;2022-08-18T14:57:39;37.90;55.00
23359;DHT22;11851;50.796;4.372;2022-08-18T15:00:11;37.10;56.40
23359;DHT22;11851;50.796;4.372;2022-08-18T15:02:39;36.40;57.60
23359;DHT22;11851;50.796;4.372;2022-08-18T15:05:08;35.80;58.70
23359;DHT22;11851;50.796;4.372;2022-08-18T15:07:35;35.40;60.40
23359;DHT22;11851;50.796;4.372;2022-08-18T15:10:06;35.00;61.20
23359;DHT22;11851;50.796;4.372;2022-08-18T15:12:32;34.70;62.10
23359;DHT22;11851;50.796;4.372;2022-08-18T15:14:58;34.20;63.40
23359;DHT22;11851;50.796;4.372;2022-08-18T15:17:24;33.60;64.50
23359;DHT22;11851;50.796;4.372;2022-08-18T15:19:52;33.20;66.00
23359;DHT22;11851;50.796;4.372;2022-08-18T15:22:18;32.70;67.50
23359;DHT22;11851;50.796;4.372;2022-08-18T15:25:02;32.80;68.00
23359;DHT22;11851;50.796;4.372;2022-08-18T15:27:47;32.60;67.60
23359;DHT22;11851;50.796;4.372;2022-08-18T15:30:14;32.40;68.60
23359;DHT22;11851;50.796;4.372;2022-08-18T15:32:42;32.10;68.70
23359;DHT22;11851;50.796;4.372;2022-08-18T15:35:08;31.90;70.70
23359;DHT22;11851;50.796;4.372;2022-08-18T15:37:35;31.90;70.00
23359;DHT22;11851;50.796;4.372;2022-08-18T15:40:11;32.10;69.50
23359;DHT22;11851;50.796;4.372;2022-08-18T15:42:49;32.30;68.90
23359;DHT22;11851;50.796;4.372;2022-08-18T15:45:26;32.20;69.00
23359;DHT22;11851;50.796;4.372;2022-08-18T15:47:52;31.90;69.20
23359;DHT22;11851;50.796;4.372;2022-08-18T15:50:18;31.80;70.10
23359;DHT22;11851;50.796;4.372;2022-08-18T15:52:48;32.10;69.80
23359;DHT22;11851;50.796;4.372;2022-08-18T15:55:20;32.70;68.40
23359;DHT22;11851;50.796;4.372;2022-08-18T15:57:47;32.80;67.60
23359;DHT22;11851;50.796;4.372;2022-08-18T16:00:15;32.60;67.50
23359;DHT22;11851;50.796;4.372;2022-08-18T16:02:48;32.40;67.90
23359;DHT22;11851;50.796;4.372;2022-08-18T16:05:16;32.20;68.10
23359;DHT22;11851;50.796;4.372;2022-08-18T16:07:41;32.10;68.50
23359;DHT22;11851;50.796;4.372;2022-08-18T16:10:08;32.00;68.60
23359;DHT22;11851;50.796;4.372;2022-08-18T16:12:34;32.00;69.20
23359;DHT22;11851;50.796;4.372;2022-08-18T16:15:00;31.90;68.90
23359;DHT22;11851;50.796;4.372;2022-08-18T16:17:28;31.80;69.00
23359;DHT22;11851;50.796;4.372;2022-08-18T16:19:55;31.90;69.20
23359;DHT22;11851;50.796;4.372;2022-08-18T16:22:20;32.00;69.90
23359;DHT22;11851;50.796;4.372;2022-08-18T16:24:47;32.10;69.40
23359;DHT22;11851;50.796;4.372;2022-08-18T16:27:13;32.00;69.50
23359;DHT22;11851;50.796;4.372;2022-08-18T16:29:39;31.90;69.80
23359;DHT22;11851;50.796;4.372;2022-08-18T16:32:04;31.80;70.10
23359;DHT22;11851;50.796;4.372;2022-08-18T16:34:30;31.60;70.30
23359;DHT22;11851;50.796;4.372;2022-08-18T16:36:56;31.30;71.30
23359;DHT22;11851;50.796;4.372;2022-08-18T16:39:22;31.10;72.10
23359;DHT22;11851;50.796;4.372;2022-08-18T16:41:48;30.90;72.10
23359;DHT22;11851;50.796;4.372;2022-08-18T16:44:14;30.90;72.70
23359;DHT22;11851;50.796;4.372;2022-08-18T16:46:42;31.20;72.70
23359;DHT22;11851;50.796;4.372;2022-08-18T16:49:08;31.50;70.50
23359;DHT22;11851;50.796;4.372;2022-08-18T16:51:34;31.60;70.00
23359;DHT22;11851;50.796;4.372;2022-08-18T16:54:00;31.60;70.20
23359;DHT22;11851;50.796;4.372;2022-08-18T16:56:27;31.50;70.80
23359;DHT22;11851;50.796;4.372;2022-08-18T16:58:54;31.40;70.20
23359;DHT22;11851;50.796;4.372;2022-08-18T17:01:38;31.60;69.30
23359;DHT22;11851;50.796;4.372;2022-08-18T17:04:27;31.50;68.80
23359;DHT22;11851;50.796;4.372;2022-08-18T17:06:54;31.40;68.70
23359;DHT22;11851;50.796;4.372;2022-08-18T17:09:21;31.40;68.60
23359;DHT22;11851;50.796;4.372;2022-08-18T17:11:47;31.80;68.40
23359;DHT22;11851;50.796;4.372;2022-08-18T17:14:14;32.60;66.80
23359;DHT22;11851;50.796;4.372;2022-08-18T17:16:40;33.50;64.70
23359;DHT22;11851;50.796;4.372;2022-08-18T17:19:07;34.20;62.50
23359;DHT22;11851;50.796;4.372;2022-08-18T17:21:33;34.80;61.20
23359;DHT22;11851;50.796;4.372;2022-08-18T17:24:02;35.30;60.00
23359;DHT22;11851;50.796;4.372;2022-08-18T17:26:36;35.80;59.10
23359;DHT22;11851;50.796;4.372;2022-08-18T17:32:07;36.00;58.40
23359;DHT22;11851;50.796;4.372;2022-08-18T17:34:37;35.80;58.80
23359;DHT22;11851;50.796;4.372;2022-08-18T17:37:12;35.70;59.00
23359;DHT22;11851;50.796;4.372;2022-08-18T17:39:45;35.50;59.40
23359;DHT22;11851;50.796;4.372;2022-08-18T17:42:13;35.30;59.90
23359;DHT22;11851;50.796;4.372;2022-08-18T17:45:08;35.30;59.90
23359;DHT22;11851;50.796;4.372;2022-08-18T17:47:59;35.30;59.90
23359;DHT22;11851;50.796;4.372;2022-08-18T17:53:17;35.10;60.80
23359;DHT22;11851;50.796;4.372;2022-08-18T17:56:13;34.90;61.00
23359;DHT22;11851;50.796;4.372;2022-08-18T18:01:12;34.40;62.10
23359;DHT22;11851;50.796;4.372;2022-08-18T18:03:38;34.30;62.40
23359;DHT22;11851;50.796;4.372;2022-08-18T18:06:13;34.10;62.70
23359;DHT22;11851;50.796;4.372;2022-08-18T18:08:54;34.00;63.40
23359;DHT22;11851;50.796;4.372;2022-08-18T18:11:27;33.70;63.90
23359;DHT22;11851;50.796;4.372;2022-08-18T18:13:55;33.30;64.70
23359;DHT22;11851;50.796;4.372;2022-08-18T18:18:59;32.60;66.70
23359;DHT22;11851;50.796;4.372;2022-08-18T18:21:27;32.10;67.50
23359;DHT22;11851;50.796;4.372;2022-08-18T18:24:11;31.90;68.30
23359;DHT22;11851;50.796;4.372;2022-08-18T18:26:43;31.50;69.20